Hauptseite
METAR-TAF:

METAR-TAF

Flughäfen :

College Park, Maryland, Vereinigte Staaten

Breite: 38-58-50N, Länge: 076-55-20W, Höhe: 15 m

Beobachtung

Neuester Wetterbericht von vor 19 Minuten, um 20:36 UTC
Wind 5 kt aus Süd
Temperatur 8°C
Luftfeuchtigkeit 93%
Luftdruck 1013 hPa
Sichtweite: 6.4 km
Durchbrochene Bewölkung in der Höhe von 700 ft
Durchbrochene Bewölkung in der Höhe von 2000 ft
Geschlossene Wolkendecke in der Höhe von 3600 ft

METAR: KCGS 092036Z AUTO 19005KT 4SM BKN007 BKN020 OVC036 08/07 A2990 RMK AO1 T00750065

Zeit: 15:55 (20:55 UTC)


TAF: fehlend

Wetterbeobachtungen und Prognosen von mehr als 4000 Flughäfen (METAR und TAF Bericht).

Die verfügbaren Stationen werden durch gelbe und rote Markierungen auf der Karte dargestellt.

Führen Sie die Maus auf sie, um den Namen der Station zu sehen.

Darauf klicken, um die Beobachtung von Wetterbeobachtungen und Prognosen zu sehen.

Um die Karte zu ändern : klicken Sie auf den grünen Tasten mit einem schwarzen Kreuz Zum Vergrößern, auf den grünen Button mit einem Gedankenstrich zu verkleinern, oder auf die grünen Pfeile für benachbarte Karten.


METAR-TAF: